Parma — V2OZ9 — position and weather

sailwx.info

Track history (hours):
 
Tides and Currents Weather Stations Pressure Air Temp Water Temp Dewpoint Dewpoint Depression Visibility Wind Speed Wind Dir Waves Ship Positions

Parma

Last reported at 2015-Mar-01 05:19 UTC. Time now 2015-Mar-03 22:40 UTC.
Position N 39°12' W 009°46'.

MMSI: 279073176.

Date/timePositionNaut miles runAvg speedWind from/ knotsBaromVisibWave heightAir tempDewpointWater temp
2015-Mar-01 05:19N 39°12' W 009°46'8 9.6
2015-Mar-01 04:31N 39°04' W 009°48'9 9.6
2015-Mar-01 03:33N 38°55' W 009°49'9 9.4
2015-Mar-01 02:34N 38°46' W 009°50'9 9.1
2015-Mar-01 01:33N 38°37' W 009°47'8 8.2
2015-Mar-01 00:33N 38°29' W 009°46'10 9.5
2015-Feb-28 23:31N 38°19' W 009°42'11 9.7
2015-Feb-28 22:24N 38°09' W 009°40'10 9.7
2015-Feb-28 21:24N 37°59' W 009°37'8 9.5
2015-Feb-28 20:33N 37°51' W 009°34'9 9.4
2015-Feb-28 19:33N 37°43' W 009°30'8 8.5
2015-Feb-28 18:33N 37°34' W 009°30'75 7.4
2015-Feb-28 08:29N 36°44' W 008°20'  
2015-Feb-24 10:11N 38°31' W 010°02'  
2015-Feb-19 19:28N 54°14' W 005°16'910.1
2015-Feb-19 18:33N 54°24' W 005°16'1010.4
2015-Feb-19 17:33N 54°34' W 005°20'9 9.4
2015-Feb-19 16:34N 54°42' W 005°27'1010.0
2015-Feb-19 15:34N 54°42' W 005°44'  
Track history (hours):
 
Tides and Currents Weather Stations Pressure Air Temp Water Temp Dewpoint Dewpoint Depression Visibility Wind Speed Wind Dir Waves Ship Positions

Parma

Last reported at 2015-Mar-01 05:19 UTC. Time now 2015-Mar-03 22:40 UTC.
Position N 39°12' W 009°46'.

MMSI: 279073176.

Date/timePositionNaut miles runAvg speedWind from/ knotsBaromVisibWave heightAir tempDewpointWater temp
2015-Mar-01 05:19N 39°12' W 009°46'8 9.6
2015-Mar-01 04:31N 39°04' W 009°48'9 9.6
2015-Mar-01 03:33N 38°55' W 009°49'9 9.4
2015-Mar-01 02:34N 38°46' W 009°50'9 9.1
2015-Mar-01 01:33N 38°37' W 009°47'8 8.2
2015-Mar-01 00:33N 38°29' W 009°46'10 9.5
2015-Feb-28 23:31N 38°19' W 009°42'11 9.7
2015-Feb-28 22:24N 38°09' W 009°40'10 9.7
2015-Feb-28 21:24N 37°59' W 009°37'8 9.5
2015-Feb-28 20:33N 37°51' W 009°34'9 9.4
2015-Feb-28 19:33N 37°43' W 009°30'8 8.5
2015-Feb-28 18:33N 37°34' W 009°30'75 7.4
2015-Feb-28 08:29N 36°44' W 008°20'  
2015-Feb-24 10:11N 38°31' W 010°02'  
2015-Feb-19 19:28N 54°14' W 005°16'910.1
2015-Feb-19 18:33N 54°24' W 005°16'1010.4
2015-Feb-19 17:33N 54°34' W 005°20'9 9.4
2015-Feb-19 16:34N 54°42' W 005°27'1010.0
2015-Feb-19 15:34N 54°42' W 005°44'  

Dump ship's entire track history